Los Angeles, CA (90071)

5:18 PM PDT on July 24, 2016 (GMT -0700)
Downtown Los Angeles | | Change Station

Elev 343 ft 34.06 °N, 118.26 °W | Updated 9 seconds ago

Clear
Clear
91.6 °F
Feels Like 90 °F
N
7.0
Wind Variable Wind from South
Gusts 7.0 mph

Today
High -- | Low -- °F
--% Chance of Precip.
Yesterday
High -- | Low -- °F
Precip. -- in
Pressure 29.85 in
Visibility 10.0 miles
Clouds Clear
Heat Index 90 °F
Dew Point 56 °F
Humidity 30%
Rainfall 0.00 in
Snow Depth Not available.
5:59 AM 7:59 PM
Waning Gibbous, 72% visible
METAR KCQT 242347Z AUTO VRB03KT 10SM CLR 31/18 A2986 RMK AO2 SLP108 T03110178 10333 20278 57016 $
Pressure 29.85 in
Visibility 10.0 miles
Clouds Clear
Heat Index 90 °F
Dew Point 56 °F
Humidity 30%
Rainfall 0.00 in
Snow Depth Not available.
5:59 AM 7:59 PM
Waning Gibbous, 72% visible
METAR KCQT 242347Z AUTO VRB03KT 10SM CLR 31/18 A2986 RMK AO2 SLP108 T03110178 10333 20278 57016 $

10-Day Weather Forecast

Almanac

Astronomy

Jul. 24, 2016 Rise Set
Actual Time
Civil Twilight
Nautical Twilight
Astronomical Twilight
Moon
Length of Visible Light
Length of Day
Tomorrow will be .
, % of the Moon is Illuminated

Today's Extremes

State Highs State Lows

Community

WunderPhotos

Upload Photos

1,927,211 photos uploaded!

WunderBlog® & News

Nearby

Air Quality

  Air Quality AQ Index Pollutant
Not available.

Snow Depth

Station Depth Elevation

Earthquake Activity

City Distance Mag. Time & Date
Minimum magnitude displayed is 2.5.

Coastal Water Temperatures

Place Temperature

Stations

Nearby Weather Stations

Station Location Temp. Windchill Dew Point Humidity Wind Precip. Elev Updated Type
                   

Watches & Warnings

There are currently no watches in effect.